ZGDY

Zhangjiajie Hehua Airport

Airport
ICAO code
ZGDY
IATA Code
DYG
Summary
ICAO Region
APAC
ICAO Territory
Location

Zhangjiajie, Hunan

Serving
Zhangjiajie
Coordinates
29° 6' 14" N , 110° 27' 4" E
KCC
Metar
ZGDY 162000Z 10003MPS 5000 -RA BR FEW010 OVC050 23/23 Q1006 NOSIG

Description

Zhangjiajie Airport is an airport in Zhangjiajie, Hunan, People's Republic of China.

Climatology

Generally warm and humid summers with mild winters Köppen climate classification Cwa.. During the winter, the main weather feature is the mid-latitude cyclone. Convective thunderstorms provide precipitation in the summer months.

Airport map

Aerial View

SKYbrary Partners:

Safety knowledge contributed by: